Van, Kentucky
Current Conditions -  °F | °C
As of 9:15 PM on Saturday 25 Oct 2014 (Local Time) from KLNP Reporting Station
Clear Clear  
Wind Chill: 55°   Ceiling: Unl
Heat Index: 55°   Visibility: 10mi
Dew Point: 46°   Wind: 9mph
Humidity: 72%   Direction: 230°SW
Pressure: 30.02"   Gusts: NA
Location:  37.1283°N, 82.8498°W
Report Text: KLNP 260115Z AUTO 23008KT 10SM CLR 13/08 A3002 RMK AO2
Loading
Personal Weather Stations






























Interactive Weather Map
Tropical Storm Tracking
New forecast layout! Learn more

10-Day Weather Forecast

Advertisements
Track Severe Weather on mobile